This is the latest recevied weather packets stored in our database for station/object SP2WPY-13. If no packets are shown the sender has not sent any weather packets the latest 10 day(s).
| Time | Temp. | Humidity | Pressure | Rain* | Wind** | Luminosity | Snow |
|---|---|---|---|---|---|---|---|
| 1787745944 | 19.44° C | 65% | 1028.1 hPa | - | - | - | - |
| 1787745624 | 19.44° C | 66% | 1028.1 hPa | - | - | - | - |
| 1787745303 | 20.56° C | 67% | 1028.1 hPa | - | - | - | - |
| 1787745030 | 20.56° C | 65% | 1028.2 hPa | - | - | - | - |
| 1787744708 | 21.11° C | 65% | 1028.1 hPa | - | - | - | - |
| 1787744433 | 21.11° C | 62% | 1028.1 hPa | - | - | - | - |
| 1787744113 | 20.56° C | 66% | 1028.1 hPa | - | - | - | - |
| 1787743839 | 21.11° C | 64% | 1028.2 hPa | - | - | - | - |
| 1787743519 | 21.11° C | 65% | 1028.2 hPa | - | - | - | - |
| 1787743246 | 21.67° C | 63% | 1028.3 hPa | - | - | - | - |
| 1787742926 | 21.11° C | 68% | 1028.3 hPa | - | - | - | - |
| 1787742605 | 20.56° C | 73% | 1028.4 hPa | - | - | - | - |
| 1787742333 | 20° C | 73% | 1028.3 hPa | - | - | - | - |
| 1787742012 | 20° C | 71% | 1028.3 hPa | - | - | - | - |
| 1787741739 | 20° C | 73% | 1028.3 hPa | - | - | - | - |
| 1787741418 | 20.56° C | 73% | 1028.3 hPa | - | - | - | - |
| 1787741144 | 20.56° C | 73% | 1028.3 hPa | - | - | - | - |
| 1787740823 | 20° C | 80% | 1028.3 hPa | - | - | - | - |
| 1787740501 | 19.44° C | 80% | 1028.3 hPa | - | - | - | - |
| 1787740227 | 19.44° C | 79% | 1028.3 hPa | - | - | - | - |
| 1787739906 | 18.89° C | 81% | 1028.2 hPa | - | - | - | - |
| 1787739633 | 19.44° C | 82% | 1028.2 hPa | - | - | - | - |
| 1787739313 | 18.89° C | 83% | 1028.2 hPa | - | - | - | - |
| 1787739039 | 18.33° C | 87% | 1028.2 hPa | - | - | - | - |
| 1787738720 | 18.33° C | 86% | 1028.2 hPa | - | - | - | - |
* Rain since midnight (hover to see other rain measurements)
** Current wind speed in m/s (hover to see current wind gust speed)